Flight Track Log - Related Links

Times and Time Zones

All times are in EDT time to prevent confusion due to time zone crossing. See the AAL1624 flight status page for this flight to view local times or setup timezone preferences in your user account.

Time Position Orientation Groundspeed Altitude Reporting Facility
EDT Latitude Longitude Course Direction KTS MPH feet Rate Location/Type
Mon 06:23:53 PM 33.9333 -118.4550 59° Northeast 181 208 1,800  Level Los Center
Mon 06:24:55 PM 33.9108 -118.5306 250° West 225 259 3,100 1,597 Climbing Los Center
Mon 06:25:00 PM 34.1437 -118.0460 59° Northeast  Level FlightAware
Mon 06:25:57 PM 33.8733 -118.6036 238° Southwest 266 306 5,100  Level Los Center
Mon 06:26:00 PM 34.2138 -117.9058 59° Northeast  Level FlightAware
Mon 06:26:59 PM 33.8181 -118.5614 148° Southeast 275 316 7,100  Level Los Center
Mon 06:27:00 PM 34.2898 -117.7711 46° Northeast  Level FlightAware
Mon 06:28:00 PM 34.3711 -117.6412 59° Northeast  Level FlightAware
Mon 06:28:00 PM 33.8697 -118.4875 50° Northeast 286 329 9,600  Level Los Center
Mon 06:29:00 PM 34.4453 -117.5095 59° Northeast  Level FlightAware
Mon 06:29:02 PM 33.9350 -118.4300 36° Northeast 294 338 12,000  Level Los Center
Mon 06:30:04 PM 33.9872 -118.3392 55° Northeast 325 374 13,500 1,645 Climbing Los Center
Mon 06:31:06 PM 34.0475 -118.2328 56° Northeast 367 422 15,400 1,984 Climbing Los Center
Mon 06:32:08 PM 34.1100 -118.1214 56° Northeast 391 450 17,600 2,032 Climbing Los Center
Mon 06:33:10 PM 34.1758 -118.0058 55° Northeast 409 471 19,600 1,984 Climbing Los Center
Mon 06:34:12 PM 34.2561 -117.8614 56° Northeast 425 489 21,700 1,790 Climbing Los Center
Mon 06:35:14 PM 34.3256 -117.7372 56° Northeast 440 506 23,300 1,500 Climbing Los Center
Mon 06:36:16 PM 34.4275 -117.6311 41° Northeast 469 540 24,800 1,500 Climbing Los Center
Mon 06:37:18 PM 34.5428 -117.5575 28° Northeast 471 542 26,400 1,403 Climbing Los Center
Mon 06:38:20 PM 34.6281 -117.4317 51° Northeast 484 557 27,700 1,258 Climbing Los Center
Mon 06:39:22 PM 34.7122 -117.3025 52° Northeast 490 564 29,000 1,355 Climbing Los Center
Mon 06:40:24 PM 34.7875 -117.1628 57° Northeast 502 578 30,500 1,548 Climbing Los Center
Mon 06:41:26 PM 34.8700 -116.9914 60° Northeast 494 568 32,200 1,403 Climbing Los Center
Mon 06:42:28 PM 34.9453 -116.8525 56° Northeast 492 566 33,400 1,065 Climbing Los Center
Mon 06:43:30 PM 35.0361 -116.7242 49° Northeast 500 575 34,400 871 Climbing Los Center
Mon 06:44:32 PM 35.1256 -116.5931 50° Northeast 505 581 35,200 823 Climbing Los Center
Mon 06:45:34 PM 35.2133 -116.4603 51° Northeast 505 581 36,100 774 Climbing Los Center
Mon 06:46:36 PM 35.3003 -116.3258 52° Northeast 505 581 36,800 435 Climbing Los Center
Mon 06:47:38 PM 35.4103 -116.1661 50° Northeast 511 588 37,000 88 Climbing Los Center
Mon 06:48:52 PM 35.5006 -116.0311 51° Northeast 512 589 37,000  Level Los Center
Mon 06:49:54 PM 35.6161 -115.8575 51° Northeast 512 589 37,000  Level Los Center
Mon 06:50:56 PM 35.7067 -115.7281 49° Northeast 503 579 37,000  Level Los Center
Mon 06:51:58 PM 35.7964 -115.5928 51° Northeast 508 585 37,000  Level Los Center
Mon 06:53:00 PM 35.8861 -115.4556 51° Northeast 514 592 37,000  Level Los Center
Mon 06:54:02 PM 35.9753 -115.3186 51° Northeast 517 595 37,000  Level Los Center
Mon 06:55:04 PM 36.0814 -115.1525 52° Northeast 518 596 37,000  Level Los Center
Mon 06:56:06 PM 36.1814 -115.0281 45° Northeast 515 593 37,000  Level Los Center
Mon 06:57:07 PM 36.2811 -114.9019 46° Northeast 516 594 37,000  Level Los Center
Mon 06:58:09 PM 36.3808 -114.7761 45° Northeast 515 593 37,000  Level Los Center
Mon 06:59:11 PM 36.4786 -114.6478 47° Northeast 514 592 37,000  Level Los Center
Mon 07:00:13 PM 36.5944 -114.4944 47° Northeast 510 587 37,000  Level Los Center
Mon 07:01:15 PM 36.6931 -114.3647 47° Northeast 514 592 37,000  Level Los Center
Mon 07:02:17 PM 36.7842 -114.2303 50° Northeast 511 588 37,000  Level Los Center
Mon 07:03:19 PM 36.8564 -114.0764 60° Northeast 514 592 37,000  Level Los Center
Mon 07:04:21 PM 36.9300 -113.9236 59° Northeast 514 592 37,000  Level Los Center
Mon 07:05:23 PM 37.0042 -113.7714 59° Northeast 513 590 37,000  Level Los Center
Mon 07:06:25 PM 37.0778 -113.6181 59° Northeast 512 589 37,000  Level Los Center
Mon 07:07:27 PM 37.1656 -113.4314 59° Northeast 515 593 37,000  Level Los Center
Mon 07:08:28 PM 37.2381 -113.2767 59° Northeast 517 595 37,000  Level Los Center
Mon 07:09:30 PM 37.3103 -113.1214 60° Northeast 517 595 37,000  Level Los Center
Mon 07:10:32 PM 37.3825 -112.9656 60° Northeast 519 597 37,000  Level Los Center
Mon 07:11:34 PM 37.4519 -112.8114 60° Northeast 519 597 37,000  Level Salt Center
Mon 07:12:35 PM 37.5386 -112.6278 59° Northeast 522 601 37,000  Level Salt Center
Mon 07:13:37 PM 37.6097 -112.4750 60° Northeast 516 594 37,000  Level Salt Center
Mon 07:14:39 PM 37.6811 -112.3203 60° Northeast 514 592 37,000  Level Salt Center
Mon 07:15:41 PM 37.7628 -112.1739 55° Northeast 512 589 37,000  Level Salt Center
Mon 07:16:42 PM 37.8308 -112.0161 61° Northeast 514 592 37,000  Level Salt Center
Mon 07:17:52 PM 37.8886 -111.8122 70° East 514 592 37,000  Level Denver Center
Mon 07:18:54 PM 37.9369 -111.6433 70° East 513 590 37,000  Level Denver Center
Mon 07:19:48 PM 37.9864 -111.4753 69° East 510 587 37,000  Level Salt Center
Mon 07:20:49 PM 38.0353 -111.3044 70° East 515 593 37,000  Level Salt Center
Mon 07:21:51 PM 38.0856 -111.1350 69° East 516 594 37,000  Level Salt Center
Mon 07:22:53 PM 38.1358 -110.9650 69° East 515 593 37,000  Level Salt Center
Mon 07:23:54 PM 38.1942 -110.7719 69° East 515 593 37,000  Level Salt Center
Mon 07:24:56 PM 38.2486 -110.6111 67° East 516 594 37,000  Level Salt Center
Mon 07:26:06 PM 38.3356 -110.4411 57° Northeast 516 594 37,000  Level Denver Center
Mon 07:27:00 PM 38.4122 -110.2958 56° Northeast 516 594 37,000  Level Salt Center
Mon 07:28:01 PM 38.4875 -110.1511 56° Northeast 514 592 37,000  Level Salt Center
Mon 07:29:03 PM 38.5775 -109.9831 56° Northeast 514 592 37,000  Level Salt Center
Mon 07:30:05 PM 38.6672 -109.8514 49° Northeast 513 590 37,000  Level Salt Center
Mon 07:31:07 PM 38.7783 -109.7039 46° Northeast 515 593 37,000  Level Salt Center
Mon 07:32:08 PM 38.8731 -109.5761 46° Northeast 516 594 37,000  Level Salt Center
Mon 07:32:41 PM 38.9022 -109.5297 51° Northeast 520 598 37,000  Level Denver Center
Mon 07:33:43 PM 39.0286 -109.3603 46° Northeast 514 592 37,000  Level Denver Center
Mon 07:34:45 PM 39.1381 -109.2136 46° Northeast 513 590 37,000  Level Denver Center
Mon 07:35:59 PM 39.2314 -109.0867 46° Northeast 510 587 37,000  Level Denver Center
Mon 07:37:17 PM 39.3869 -108.8750 46° Northeast 514 592 37,000  Level Salt Center
Mon 07:38:03 PM 39.4494 -108.7881 47° Northeast 519 597 37,000  Level Denver Center
Mon 07:39:05 PM 39.5567 -108.6364 47° Northeast 521 600 37,000  Level Denver Center
Mon 07:40:07 PM 39.6508 -108.5083 46° Northeast 523 602 37,000  Level Denver Center
Mon 07:41:08 PM 39.7614 -108.3564 47° Northeast 525 604 37,000  Level Denver Center
Mon 07:42:10 PM 39.8572 -108.2242 47° Northeast 524 603 37,000  Level Denver Center
Mon 07:43:12 PM 39.9656 -108.0706 47° Northeast 512 589 37,000  Level Denver Center
Mon 07:44:14 PM 40.0583 -107.9375 48° Northeast 513 590 37,000  Level Denver Center
Mon 07:45:16 PM 40.1433 -107.7544 59° Northeast 526 605 37,000  Level Denver Center
Mon 07:46:18 PM 40.2122 -107.5953 60° Northeast 525 604 37,000  Level Denver Center
Mon 07:47:20 PM 40.2922 -107.4103 60° Northeast 524 603 37,000  Level Denver Center
Mon 07:48:21 PM 40.3614 -107.2517 60° Northeast 524 603 37,000  Level Denver Center
Mon 07:49:23 PM 40.4419 -107.0667 60° Northeast 524 603 37,000  Level Denver Center
Mon 07:50:25 PM 40.5014 -106.9275 61° Northeast 522 601 37,000  Level Denver Center
Mon 07:51:27 PM 40.5869 -106.7275 61° Northeast 521 600 37,000  Level Denver Center
Mon 07:52:29 PM 40.6586 -106.5608 60° Northeast 523 602 37,000  Level Denver Center
Mon 07:53:31 PM 40.7233 -106.4044 61° Northeast 519 597 37,000  Level Denver Center
Mon 07:54:32 PM 40.7969 -106.2244 62° Northeast 513 590 37,000  Level Denver Center
Mon 07:55:34 PM 40.8753 -106.0411 60° Northeast 525 604 37,000  Level Denver Center
Mon 07:56:48 PM 40.9436 -105.8742 62° Northeast 521 600 37,000  Level Denver Center
Mon 07:57:50 PM 41.0117 -105.7036 62° Northeast 520 598 37,000  Level Denver Center
Mon 07:58:52 PM 41.0358 -105.4589 82° East 520 598 37,000  Level Denver Center
Mon 07:59:54 PM 41.0517 -105.2803 83° East 513 590 37,000  Level Denver Center
Mon 08:00:56 PM 41.0681 -105.0686 84° East 514 592 37,000  Level Denver Center
Mon 08:01:58 PM 41.0833 -104.8875 84° East 519 597 37,000  Level Denver Center
Mon 08:03:00 PM 41.0886 -104.7097 88° East 511 588 37,000  Level Denver Center
Mon 08:04:02 PM 41.0939 -104.4958 88° East 516 594 37,000  Level Denver Center
Mon 08:05:04 PM 41.0992 -104.3211 88° East 499 574 37,000  Level Denver Center
Mon 08:06:05 PM 41.1067 -104.1117 87° East 509 586 37,000  Level Denver Center
Mon 08:07:07 PM 41.1117 -103.9317 88° East 512 589 37,000  Level Denver Center
Mon 08:08:09 PM 41.1192 -103.7214 87° East 513 590 37,000  Level Denver Center
Mon 08:09:11 PM 41.1458 -103.5436 79° East 519 597 37,000  Level Denver Center
Mon 08:10:13 PM 41.1867 -103.3406 75° East 514 592 37,000  Level Denver Center
Mon 08:11:15 PM 41.2231 -103.1628 75° East 520 598 37,000  Level Denver Center
Mon 08:12:17 PM 41.2639 -102.9586 75° East 516 594 37,000  Level Denver Center
Mon 08:13:19 PM 41.2969 -102.7844 76° East 512 589 37,000  Level Denver Center
Mon 08:14:33 PM 41.3375 -102.5808 75° East 509 586 37,000  Level Denver Center
Mon 08:15:35 PM 41.3764 -102.3772 76° East 508 585 37,000  Level Denver Center
Mon 08:16:37 PM 41.4156 -102.1756 75° East 505 581 37,000  Level Denver Center
Mon 08:17:39 PM 41.4478 -102.0003 76° East 507 583 37,000  Level Denver Center
Mon 08:18:41 PM 41.4867 -101.7947 76° East 510 587 37,000  Level Denver Center
Mon 08:19:43 PM 41.5197 -101.6181 76° East 511 588 37,000  Level Denver Center
Mon 08:20:45 PM 41.5578 -101.4122 76° East 510 587 37,000  Level Denver Center
Mon 08:21:47 PM 41.5894 -101.2361 76° East 509 586 37,000  Level Denver Center
Mon 08:22:49 PM 41.6219 -101.0597 76° East 510 587 37,000  Level Denver Center
Mon 08:23:51 PM 41.6567 -100.8556 77° East 505 581 37,000  Level Denver Center
Mon 08:24:52 PM 41.6881 -100.6803 76° East 505 581 37,000  Level Denver Center
Mon 08:25:54 PM 41.7236 -100.4786 77° East 500 575 37,000 290 Level Denver Center
Mon 08:26:56 PM 41.7525 -100.3008 78° East 506 582 37,600 726 Climbing Denver Center
Mon 08:27:58 PM 41.7883 -100.0922 77° East 513 590 38,500 677 Climbing Denver Center
Mon 08:29:00 PM 41.8194 -99.9142 77° East 514 592 39,000 242 Climbing Denver Center
Mon 08:30:02 PM 41.8528 -99.7103 78° East 515 593 39,000  Level Denver Center
Mon 08:31:04 PM 41.8833 -99.5222 78° East 515 593 39,000  Level Denver Center
Mon 08:32:07 PM 41.9150 -99.3350 77° East 512 589 39,000  Level Denver Center
Mon 08:33:09 PM 41.9439 -99.1492 78° East 507 583 39,000  Level Denver Center
Mon 08:34:13 PM 41.9744 -98.9644 77° East 507 583 39,000  Level Minneapolis Center
Mon 08:35:15 PM 42.0089 -98.7419 78° East 506 582 39,000  Level Minneapolis Center
Mon 08:36:17 PM 42.0389 -98.5544 78° East 509 586 39,000  Level Minneapolis Center
Mon 08:37:19 PM 42.0672 -98.3697 78° East 505 581 39,000  Level Minneapolis Center
Mon 08:38:21 PM 42.0950 -98.1839 79° East 505 581 39,000  Level Minneapolis Center
Mon 08:39:23 PM 42.1228 -97.9981 79° East 505 581 39,000  Level Minneapolis Center
Mon 08:40:25 PM 42.1514 -97.8039 79° East 505 581 39,000  Level Minneapolis Center
Mon 08:41:27 PM 42.1792 -97.6186 79° East 505 581 39,000  Level Minneapolis Center
Mon 08:42:29 PM 42.2061 -97.4333 79° East 503 579 39,000  Level Minneapolis Center
Mon 08:43:31 PM 42.2333 -97.2453 79° East 507 583 39,000  Level Minneapolis Center
Mon 08:44:33 PM 42.2644 -97.0217 79° East 505 581 39,000  Level Minneapolis Center
Mon 08:45:35 PM 42.2903 -96.8372 79° East 502 578 39,000  Level Minneapolis Center
Mon 08:46:38 PM 42.3156 -96.6481 80° East 506 582 39,000  Level Minneapolis Center
Mon 08:47:40 PM 42.3414 -96.4603 79° East 506 582 39,000  Level Minneapolis Center
Mon 08:48:42 PM 42.3658 -96.2728 80° East 506 582 39,000  Level Minneapolis Center
Mon 08:49:44 PM 42.3911 -96.0847 80° East 506 582 39,000  Level Minneapolis Center
Mon 08:50:46 PM 42.4156 -95.8942 80° East 510 587 39,000  Level Minneapolis Center
Mon 08:51:48 PM 42.4325 -95.6658 84° East 510 587 39,000  Level Minneapolis Center
Mon 08:52:50 PM 42.4392 -95.4739 87° East 510 587 39,000  Level Minneapolis Center
Mon 08:53:52 PM 42.4475 -95.2842 87° East 507 583 39,000  Level Minneapolis Center
Mon 08:54:54 PM 42.4533 -95.0900 88° East 512 589 39,000  Level Minneapolis Center
Mon 08:55:56 PM 42.4606 -94.8989 87° East 510 587 39,000  Level Minneapolis Center
Mon 08:56:58 PM 42.4672 -94.7075 87° East 510 587 39,000  Level Minneapolis Center
Mon 08:58:00 PM 42.4728 -94.4894 88° East 509 586 39,000  Level Minneapolis Center
Mon 08:59:03 PM 42.4781 -94.3003 88° East 508 585 39,000  Level Minneapolis Center
Mon 09:00:05 PM 42.4844 -94.1125 87° East 507 583 39,000  Level Minneapolis Center
Mon 09:01:07 PM 42.4892 -93.9214 88° East 510 587 39,000  Level Minneapolis Center
Mon 09:02:09 PM 42.4950 -93.6917 88° East 514 592 39,000  Level Minneapolis Center
Mon 09:03:11 PM 42.4994 -93.4997 88° East 515 593 39,000  Level Minneapolis Center
Mon 09:04:13 PM 42.5039 -93.3078 88° East 516 594 39,000  Level Minneapolis Center
Mon 09:05:15 PM 42.5083 -93.1158 88° East 515 593 39,000  Level Minneapolis Center
Mon 09:06:23 PM 42.5125 -92.8842 89° East 516 594 39,000  Level Chicago Center
Mon 09:07:25 PM 42.5150 -92.6931 89° East 514 592 39,000  Level Chicago Center
Mon 09:08:27 PM 42.5181 -92.5033 89° East 511 588 39,000 -48 Level Chicago Center
Mon 09:09:29 PM 42.5208 -92.2750 89° East 511 588 38,900 -532 Descending Chicago Center
Mon 09:10:31 PM 42.5228 -92.0886 89° East 505 581 37,900 -930 Descending Chicago Center
Mon 09:12:36 PM 42.5256 -91.7142 89° East 507 583 36,000 -1,155 Descending Chicago Center
Mon 09:13:38 PM 42.5267 -91.4900 90° East 509 586 34,300 -1,500 Descending Chicago Center
Mon 09:14:40 PM 42.5258 -91.3000 90° East 514 592 32,900 -1,161 Descending Chicago Center
Mon 09:15:42 PM 42.5264 -91.1094 90° East 514 592 31,900 -919 Descending Chicago Center
Mon 09:16:44 PM 42.5261 -90.9192 90° East 514 592 31,000 -1,016 Descending Chicago Center
Mon 09:17:46 PM 42.5247 -90.6911 90° East 513 590 29,800 -1,065 Descending Chicago Center
Mon 09:18:48 PM 42.5250 -90.5014 90° East 509 586 28,800 -968 Descending Chicago Center
Mon 09:19:50 PM 42.5208 -90.3167 92° East 500 575 27,800 -968 Descending Chicago Center
Mon 09:20:52 PM 42.5183 -90.1306 91° East 493 567 26,800 -871 Descending Chicago Center
Mon 09:21:54 PM 42.5106 -89.9572 93° East 478 550 26,000 -919 Descending Chicago Center
Mon 09:22:56 PM 42.4922 -89.7528 97° East 461 531 24,900 -1,355 Descending Chicago Center
Mon 09:23:58 PM 42.4764 -89.5836 97° East 457 526 23,200 -1,694 Descending Chicago Center
Mon 09:25:00 PM 42.4608 -89.4203 97° East 441 507 21,400 -1,935 Descending Chicago Center
Mon 09:26:02 PM 42.4478 -89.2669 97° East 417 480 19,200 -1,935 Descending Chicago Center
Mon 09:27:04 PM 42.4342 -89.1192 97° East 400 460 17,400 -2,032 Descending Chicago Center
Mon 09:28:06 PM 42.4181 -88.9506 97° East 391 450 15,000 -2,146 Descending Chicago Center
Mon 09:29:07 PM 42.4050 -88.8097 97° East 381 438 13,000 -1,805 Descending Chicago Center
Mon 09:30:09 PM 42.3925 -88.6744 97° East 367 422 11,300 -1,548 Descending Chicago Center
Mon 09:31:11 PM 42.3803 -88.5539 98° East 332 382 9,800 -1,113 Descending Chicago Center
Mon 09:32:13 PM 42.3506 -88.4544 112° Southeast 299 344 9,000 -871 Descending Chicago Center
Mon 09:33:15 PM 42.3003 -88.3700 129° Southeast 293 337 8,000 -976 Descending Chicago Center
Mon 09:34:16 PM 42.2439 -88.2711 128° Southeast 288 331 7,000 -829 Descending Chicago Center
Mon 09:35:18 PM 42.1961 -88.1894 128° Southeast 281 323 6,300 -823 Descending Chicago Center
Mon 09:36:20 PM 42.1542 -88.1122 126° Southeast 267 307 5,300 -1,189 Descending Chicago Center
Mon 09:37:04 PM 42.1167 -88.0667 138° Southeast 213 245 4,200 -1,364 Descending Chicago TRACON
Mon 09:38:10 PM 42.0667 -88.0167 143° Southeast 189 217 2,800 -1,143 Descending Chicago TRACON
Mon 09:39:10 PM 42.0333 -87.9833 143° Southeast 156 180 1,800 -895 Descending Chicago TRACON
Mon 09:40:04 PM 42.0000 -87.9500 143° Southeast 146 168 1,100 -778 Descending Chicago TRACON

Login

Don't have an account? Register now (free) for customized features, flight alerts, and more!